Cranberry, North Carolina
Current Conditions -  °F | °C
As of 12:35 AM on Thursday 18 Dec 2014 (Local Time) from KTNB Reporting Station
Clear Clear  
Wind Chill: 23°   Ceiling: Unl
Heat Index: 32°   Visibility: 10mi
Dew Point: 27°   Wind: 12mph
Humidity: 80%   Direction: 290°WNW
Pressure: 30.05"   Gusts: 24mph
Location:  36.1731°N, 81.9572°W
Report Text: KTNB 180535Z AUTO 29010G21KT 240V340 10SM CLR 00/M03 A3005 RMK AO2 T00001030
Loading
Personal Weather Stations






























Interactive Weather Map New forecast layout! Learn more

10-Day Weather Forecast

Advertisements
Track Severe Weather on mobile